createdAt,value
2023-05-11T00:00:49.674Z,14.60
2023-05-11T00:03:16.972Z,14.50
2023-05-11T00:05:48.716Z,14.60
2023-05-11T00:08:17.276Z,14.50
2023-05-11T00:10:48.684Z,14.50
2023-05-11T00:13:15.946Z,14.50
2023-05-11T00:15:43.081Z,14.50
2023-05-11T00:18:10.511Z,14.50
2023-05-11T00:20:37.517Z,14.50
2023-05-11T00:23:04.718Z,14.50
2023-05-11T00:25:31.743Z,14.40
2023-05-11T00:27:58.754Z,14.40
2023-05-11T00:30:25.906Z,14.40
2023-05-11T00:32:53.259Z,14.40
2023-05-11T00:35:20.551Z,14.40
2023-05-11T00:37:47.883Z,14.30
2023-05-11T00:40:15.118Z,14.30
2023-05-11T00:42:42.234Z,14.30
2023-05-11T00:45:09.754Z,14.30
2023-05-11T00:47:37.672Z,14.20
2023-05-11T00:50:05.721Z,14.20
2023-05-11T00:52:33.060Z,14.20
2023-05-11T00:55:00.169Z,14.20
2023-05-11T00:57:27.623Z,14.20
2023-05-11T00:59:54.749Z,14.10
2023-05-11T01:02:21.846Z,14.20
2023-05-11T01:04:49.030Z,14.10
2023-05-11T01:07:57.711Z,14.20
2023-05-11T01:10:38.885Z,14.20
2023-05-11T01:13:26.094Z,14.20
2023-05-11T01:15:56.477Z,14.20
2023-05-11T01:18:27.437Z,14.20
2023-05-11T01:21:00.785Z,14.20
2023-05-11T01:24:13.299Z,14.20
2023-05-11T01:27:20.123Z,14.20
2023-05-11T01:30:13.058Z,14.20
2023-05-11T01:32:42.366Z,14.10
2023-05-11T01:35:18.814Z,14.10
2023-05-11T01:37:51.308Z,14.10
2023-05-11T01:40:25.930Z,14.10
2023-05-11T01:43:03.947Z,14.10
2023-05-11T01:45:37.955Z,14.10
2023-05-11T01:48:12.004Z,14.10
2023-05-11T01:50:39.773Z,14.00
2023-05-11T01:53:07.423Z,14.00
2023-05-11T01:55:36.254Z,14.00
2023-05-11T01:58:06.511Z,14.00
2023-05-11T02:00:34.344Z,14.00
2023-05-11T02:03:03.678Z,13.90
2023-05-11T02:05:33.287Z,13.90
2023-05-11T02:08:04.430Z,13.90
2023-05-11T02:10:33.665Z,13.90
2023-05-11T02:13:03.668Z,13.80
2023-05-11T02:15:31.494Z,13.80
2023-05-11T02:17:59.772Z,13.80
2023-05-11T02:20:27.388Z,13.70
2023-05-11T02:22:56.547Z,13.60
2023-05-11T02:25:25.317Z,13.60
2023-05-11T02:27:52.498Z,13.60
2023-05-11T02:30:19.891Z,13.50
2023-05-11T02:32:54.813Z,13.50
2023-05-11T02:35:32.854Z,13.50
2023-05-11T02:38:03.156Z,13.50
2023-05-11T02:40:40.660Z,13.40
2023-05-11T02:43:15.571Z,13.40
2023-05-11T02:45:45.564Z,13.40
2023-05-11T02:48:26.651Z,13.40
2023-05-11T02:50:57.131Z,13.30
2023-05-11T02:53:28.550Z,13.30
2023-05-11T02:55:56.292Z,13.30
2023-05-11T02:58:24.006Z,13.30
2023-05-11T03:00:51.505Z,13.30
2023-05-11T03:03:18.910Z,13.20
2023-05-11T03:05:46.308Z,13.20
2023-05-11T03:08:13.427Z,13.20
2023-05-11T03:10:41.885Z,13.20
2023-05-11T03:13:10.084Z,13.20
2023-05-11T03:15:38.920Z,13.10
2023-05-11T03:18:08.125Z,13.20
2023-05-11T03:20:39.164Z,13.20
2023-05-11T03:23:07.457Z,13.20
2023-05-11T03:25:34.760Z,13.10
2023-05-11T03:28:04.218Z,13.10
2023-05-11T03:30:32.959Z,13.10
2023-05-11T03:33:00.250Z,13.10
2023-05-11T03:35:29.333Z,13.00
2023-05-11T03:37:58.305Z,13.10
2023-05-11T03:40:27.915Z,13.00
2023-05-11T03:42:56.595Z,13.00
2023-05-11T03:45:26.115Z,13.10
2023-05-11T03:47:55.496Z,13.10
2023-05-11T03:50:23.314Z,13.00
2023-05-11T03:52:50.857Z,13.00
2023-05-11T03:55:17.986Z,13.00
2023-05-11T03:57:45.560Z,13.00
2023-05-11T04:00:13.187Z,13.00
2023-05-11T04:02:41.233Z,13.00
2023-05-11T04:05:12.701Z,13.00
2023-05-11T04:07:40.313Z,13.00
2023-05-11T04:10:08.371Z,13.00
2023-05-11T04:12:35.425Z,13.00
2023-05-11T04:15:02.545Z,13.00
2023-05-11T04:17:29.609Z,13.00
2023-05-11T04:19:56.649Z,13.00
2023-05-11T04:22:23.666Z,13.00
2023-05-11T04:24:50.694Z,13.00
2023-05-11T04:27:17.680Z,13.00
2023-05-11T04:29:45.073Z,13.00
2023-05-11T04:32:12.160Z,13.00
2023-05-11T04:34:39.990Z,13.10
2023-05-11T04:37:07.568Z,13.10
2023-05-11T04:39:35.078Z,13.10
2023-05-11T04:42:02.262Z,13.10
2023-05-11T04:44:29.285Z,13.10
2023-05-11T04:46:57.112Z,13.10
2023-05-11T04:49:24.310Z,13.10
2023-05-11T04:51:51.380Z,13.20
2023-05-11T04:54:18.366Z,13.20
2023-05-11T04:56:45.353Z,13.20
2023-05-11T04:59:12.473Z,13.20
2023-05-11T05:01:39.809Z,13.30
2023-05-11T05:04:07.043Z,13.30
2023-05-11T05:06:34.401Z,13.30
2023-05-11T05:09:01.513Z,13.30
2023-05-11T05:11:28.507Z,13.30
2023-05-11T05:13:55.736Z,13.40
2023-05-11T05:16:22.761Z,13.40
2023-05-11T05:18:49.837Z,13.50
2023-05-11T05:21:16.883Z,13.50
2023-05-11T05:23:43.969Z,13.50
2023-05-11T05:26:11.731Z,13.60
2023-05-11T05:28:38.920Z,13.60
2023-05-11T05:31:06.377Z,13.70
2023-05-11T05:33:33.442Z,13.70
2023-05-11T05:36:00.647Z,13.70
2023-05-11T05:38:27.827Z,13.80
2023-05-11T05:40:54.901Z,13.80
2023-05-11T05:43:21.957Z,13.90
2023-05-11T05:45:49.052Z,13.90
2023-05-11T05:48:16.072Z,13.90
2023-05-11T05:50:43.204Z,14.00
2023-05-11T05:53:10.294Z,14.00
2023-05-11T05:55:37.339Z,14.10
2023-05-11T05:58:04.449Z,14.10
2023-05-11T06:00:31.579Z,14.20
2023-05-11T06:02:58.759Z,14.20
2023-05-11T06:05:25.982Z,14.30
2023-05-11T06:08:05.946Z,14.30
2023-05-11T06:10:36.666Z,14.40
2023-05-11T06:13:03.714Z,14.40
2023-05-11T06:15:30.885Z,14.50
2023-05-11T06:17:58.005Z,14.50
2023-05-11T06:20:25.265Z,14.50
2023-05-11T06:22:52.313Z,14.60
2023-05-11T06:25:20.004Z,14.60
2023-05-11T06:27:47.118Z,14.60
2023-05-11T06:30:14.317Z,14.70
2023-05-11T06:32:41.664Z,14.70
2023-05-11T06:35:09.292Z,14.70
2023-05-11T06:37:36.611Z,14.80
2023-05-11T06:40:03.974Z,14.80
2023-05-11T06:42:31.525Z,14.90
2023-05-11T06:44:58.609Z,14.90
2023-05-11T06:47:25.784Z,15.00
2023-05-11T06:49:53.042Z,15.00
2023-05-11T06:52:20.065Z,15.10
2023-05-11T06:54:47.176Z,15.20
2023-05-11T06:57:14.685Z,15.20
2023-05-11T06:59:42.287Z,15.20
2023-05-11T07:02:09.535Z,15.30
2023-05-11T07:04:37.296Z,15.30
2023-05-11T07:09:31.968Z,15.50
2023-05-11T07:11:59.047Z,15.50
2023-05-11T07:14:26.128Z,15.50
2023-05-11T07:16:53.278Z,15.60
2023-05-11T07:19:20.380Z,15.60
2023-05-11T07:21:47.465Z,15.70
2023-05-11T07:24:14.606Z,15.70
2023-05-11T07:26:41.650Z,15.80
2023-05-11T07:29:08.668Z,15.80
2023-05-11T07:31:36.467Z,15.80
2023-05-11T07:34:04.756Z,15.90
2023-05-11T07:36:32.174Z,15.90
2023-05-11T07:39:01.251Z,16.00
2023-05-11T07:41:29.228Z,16.10
2023-05-11T07:43:56.238Z,16.10
2023-05-11T07:46:23.412Z,16.20
2023-05-11T07:48:57.379Z,16.20
2023-05-11T07:51:30.924Z,16.30
2023-05-11T07:53:58.002Z,16.40
2023-05-11T07:56:25.144Z,16.50
2023-05-11T07:58:52.167Z,16.60
2023-05-11T08:01:19.236Z,16.70
2023-05-11T08:03:46.268Z,16.80
2023-05-11T08:06:13.318Z,16.80
2023-05-11T08:08:40.351Z,16.90
2023-05-11T08:11:07.501Z,17.00
2023-05-11T08:16:02.013Z,17.10
2023-05-11T08:18:29.669Z,17.20
2023-05-11T08:20:57.055Z,17.40
2023-05-11T08:23:24.121Z,17.40
2023-05-11T08:25:54.370Z,17.50
2023-05-11T08:28:22.206Z,17.50
2023-05-11T08:30:58.799Z,17.50
2023-05-11T08:33:37.402Z,17.60
2023-05-11T08:36:07.034Z,17.60
2023-05-11T08:38:35.767Z,17.70
2023-05-11T08:41:03.363Z,17.70
2023-05-11T08:43:34.400Z,17.70
2023-05-11T08:46:05.117Z,17.90
2023-05-11T08:48:32.494Z,18.00
2023-05-11T08:51:00.326Z,18.00
2023-05-11T08:53:27.418Z,18.10
2023-05-11T08:55:58.978Z,18.10
2023-05-11T08:58:27.987Z,18.10
2023-05-11T09:00:55.765Z,18.30
2023-05-11T09:03:23.470Z,18.30
2023-05-11T09:05:50.927Z,18.40
2023-05-11T09:08:19.553Z,18.50
2023-05-11T09:10:46.899Z,18.50
2023-05-11T09:13:14.111Z,18.60
2023-05-11T09:15:41.379Z,18.70
2023-05-11T09:18:08.706Z,18.80
2023-05-11T09:20:35.861Z,18.80
2023-05-11T09:23:03.165Z,18.80
2023-05-11T09:25:35.052Z,18.80
2023-05-11T09:28:02.215Z,18.90
2023-05-11T09:30:29.263Z,18.90
2023-05-11T09:33:00.013Z,18.90
2023-05-11T09:35:33.358Z,18.90
2023-05-11T09:38:13.382Z,18.90
2023-05-11T09:40:52.221Z,18.90
2023-05-11T09:43:30.914Z,18.90
2023-05-11T09:46:07.035Z,18.90
2023-05-11T09:48:35.311Z,19.00
2023-05-11T09:51:07.964Z,18.90
2023-05-11T09:53:45.909Z,18.90
2023-05-11T09:56:14.027Z,18.90
2023-05-11T09:58:49.164Z,19.00
2023-05-11T10:01:18.932Z,18.90
2023-05-11T10:04:00.215Z,19.00
2023-05-11T10:06:50.259Z,18.90
2023-05-11T10:09:23.355Z,18.90
2023-05-11T10:11:51.330Z,19.00
2023-05-11T10:14:19.889Z,19.10
2023-05-11T10:16:48.080Z,19.20
2023-05-11T10:19:15.993Z,19.40
2023-05-11T10:21:43.662Z,19.40
2023-05-11T10:24:11.382Z,19.40
2023-05-11T10:26:38.986Z,19.50
2023-05-11T10:29:06.225Z,19.50
2023-05-11T10:31:33.600Z,19.50
2023-05-11T10:34:02.467Z,19.70
2023-05-11T10:36:30.146Z,19.80
2023-05-11T10:38:59.980Z,19.90
2023-05-11T10:41:48.180Z,20.00
2023-05-11T10:44:40.323Z,20.10
2023-05-11T10:47:55.241Z,20.00
2023-05-11T10:50:48.365Z,20.00
2023-05-11T10:53:39.409Z,20.10
2023-05-11T10:56:42.341Z,20.20
2023-05-11T10:59:46.572Z,20.30
2023-05-11T11:02:13.977Z,20.40
2023-05-11T11:04:50.457Z,20.60
2023-05-11T11:07:19.661Z,20.70
2023-05-11T11:10:05.166Z,20.70
2023-05-11T11:12:35.123Z,20.70
2023-05-11T11:15:07.245Z,20.60
2023-05-11T11:17:36.205Z,20.60
2023-05-11T11:20:08.652Z,20.60
2023-05-11T11:22:35.946Z,20.60
2023-05-11T11:25:08.089Z,20.60
2023-05-11T11:27:41.302Z,20.60
2023-05-11T11:30:27.003Z,20.50
2023-05-11T11:33:08.586Z,20.40
2023-05-11T11:35:42.033Z,20.20
2023-05-11T11:38:15.754Z,20.20
2023-05-11T11:40:53.035Z,20.10
2023-05-11T11:43:29.160Z,20.10
2023-05-11T11:46:00.621Z,20.20
2023-05-11T11:48:36.066Z,20.30
2023-05-11T11:51:09.071Z,20.30
2023-05-11T11:53:41.501Z,20.30
2023-05-11T11:56:15.079Z,20.30
2023-05-11T11:58:44.575Z,20.30
2023-05-11T12:01:21.944Z,20.30
2023-05-11T12:04:18.576Z,20.30
2023-05-11T12:06:55.339Z,20.40
2023-05-11T12:09:23.476Z,20.50
2023-05-11T12:11:51.172Z,20.70
2023-05-11T12:14:19.341Z,20.90
2023-05-11T12:17:05.464Z,21.00
2023-05-11T12:19:32.531Z,21.10
2023-05-11T12:22:00.256Z,21.20
2023-05-11T12:24:27.437Z,21.40
2023-05-11T12:26:57.684Z,21.50
2023-05-11T12:29:25.271Z,21.50
2023-05-11T12:31:52.922Z,21.60
2023-05-11T12:34:25.030Z,21.60
2023-05-11T12:36:53.776Z,21.60
2023-05-11T12:39:24.841Z,21.60
2023-05-11T12:41:54.808Z,21.60
2023-05-11T12:44:27.112Z,21.70
2023-05-11T12:46:54.793Z,21.80
2023-05-11T12:49:27.209Z,21.80
2023-05-11T12:52:09.228Z,21.80
2023-05-11T12:55:00.136Z,21.90
2023-05-11T12:57:30.206Z,21.90
2023-05-11T13:00:14.808Z,22.00
2023-05-11T13:02:57.997Z,22.10
2023-05-11T13:05:27.765Z,22.30
2023-05-11T13:08:05.311Z,22.40
2023-05-11T13:10:32.588Z,22.40
2023-05-11T13:12:59.717Z,22.30
2023-05-11T13:15:28.654Z,22.30
2023-05-11T13:17:59.785Z,22.30
2023-05-11T13:20:32.129Z,22.30
2023-05-11T13:23:11.505Z,22.20
2023-05-11T13:25:48.839Z,22.00
2023-05-11T13:28:17.824Z,21.80
2023-05-11T13:30:46.601Z,21.70
2023-05-11T13:33:13.963Z,21.70
2023-05-11T13:35:42.188Z,21.90
2023-05-11T13:38:13.160Z,22.30
2023-05-11T13:40:40.464Z,22.50
2023-05-11T13:43:07.741Z,22.50
2023-05-11T13:45:36.500Z,22.40
2023-05-11T13:48:03.856Z,22.30
2023-05-11T13:50:32.143Z,22.20
2023-05-11T13:52:59.439Z,22.20
2023-05-11T13:55:26.794Z,22.10
2023-05-11T13:57:53.903Z,22.00
2023-05-11T14:00:22.254Z,22.10
2023-05-11T14:02:50.727Z,22.00
2023-05-11T14:05:18.277Z,21.90
2023-05-11T14:07:48.413Z,21.90
2023-05-11T14:10:17.809Z,21.90
2023-05-11T14:12:46.099Z,21.90
2023-05-11T14:15:13.633Z,21.90
2023-05-11T14:17:42.931Z,21.80
2023-05-11T14:20:12.366Z,21.80
2023-05-11T14:22:43.010Z,21.60
2023-05-11T14:25:10.926Z,21.50
2023-05-11T14:27:38.195Z,21.40
2023-05-11T14:30:07.225Z,21.40
2023-05-11T14:32:34.368Z,21.30
2023-05-11T14:35:01.464Z,21.30
2023-05-11T14:37:28.751Z,21.30
2023-05-11T14:39:56.117Z,21.20
2023-05-11T14:42:23.488Z,21.20
2023-05-11T14:44:50.490Z,21.10
2023-05-11T14:47:17.662Z,21.00
2023-05-11T14:49:44.708Z,21.00
2023-05-11T14:52:11.804Z,20.90
2023-05-11T14:54:38.875Z,20.90
2023-05-11T14:57:06.327Z,20.90
2023-05-11T14:59:33.501Z,20.90
2023-05-11T15:02:00.750Z,20.80
2023-05-11T15:04:27.849Z,20.80
2023-05-11T15:06:55.466Z,20.70
2023-05-11T15:09:23.992Z,20.70
2023-05-11T15:11:51.049Z,20.60
2023-05-11T15:14:18.219Z,20.60
2023-05-11T15:16:46.004Z,20.60
2023-05-11T15:19:13.716Z,20.60
2023-05-11T15:21:40.823Z,20.60
2023-05-11T15:24:10.692Z,20.60
2023-05-11T15:26:38.481Z,20.60
2023-05-11T15:29:05.683Z,20.60
2023-05-11T15:31:33.271Z,20.70
2023-05-11T15:34:01.188Z,20.70
2023-05-11T15:36:29.824Z,20.80
2023-05-11T15:38:57.457Z,20.70
2023-05-11T15:41:24.590Z,20.70
2023-05-11T15:43:52.796Z,20.60
2023-05-11T15:46:19.914Z,20.50
2023-05-11T15:48:47.020Z,20.50
2023-05-11T15:51:14.212Z,20.40
2023-05-11T15:53:41.387Z,20.30
2023-05-11T15:56:09.859Z,20.20
2023-05-11T16:01:04.472Z,20.00
2023-05-11T16:03:32.510Z,20.00
2023-05-11T16:06:01.567Z,19.90
2023-05-11T16:08:28.858Z,19.90
2023-05-11T16:10:56.011Z,19.80
2023-05-11T16:13:23.441Z,19.70
2023-05-11T16:15:51.681Z,19.70
2023-05-11T16:18:20.105Z,19.60
2023-05-11T16:20:47.308Z,19.60
2023-05-11T16:23:14.339Z,19.60
2023-05-11T16:25:41.572Z,19.50
2023-05-11T16:28:08.874Z,19.50
2023-05-11T16:30:36.936Z,19.50
2023-05-11T16:33:04.431Z,19.40
2023-05-11T16:35:31.894Z,19.40
2023-05-11T16:38:00.048Z,19.30
2023-05-11T16:40:27.217Z,19.40
2023-05-11T16:42:54.424Z,19.30
2023-05-11T16:45:21.704Z,19.20
2023-05-11T16:47:49.022Z,19.20
2023-05-11T16:50:18.525Z,19.10
2023-05-11T16:52:46.524Z,19.20
2023-05-11T16:55:16.496Z,19.10
2023-05-11T16:57:45.020Z,19.10
2023-05-11T17:00:14.376Z,19.10
2023-05-11T17:02:42.796Z,19.00
2023-05-11T17:05:14.970Z,19.00
2023-05-11T17:07:45.335Z,19.00
2023-05-11T17:10:13.853Z,18.90
2023-05-11T17:12:41.900Z,18.90
2023-05-11T17:15:10.339Z,18.90
2023-05-11T17:17:38.708Z,18.80
2023-05-11T17:20:08.324Z,18.80
2023-05-11T17:22:36.547Z,18.80
2023-05-11T17:25:06.040Z,18.90
2023-05-11T17:27:37.146Z,18.70
2023-05-11T17:30:06.429Z,18.70
2023-05-11T17:32:35.408Z,18.70
2023-05-11T17:35:04.854Z,18.60
2023-05-11T17:37:33.062Z,18.60
2023-05-11T17:40:01.869Z,18.50
2023-05-11T17:44:59.483Z,18.50
2023-05-11T17:47:27.889Z,18.50
2023-05-11T17:49:56.429Z,18.50
2023-05-11T17:52:26.469Z,18.40
2023-05-11T17:57:24.311Z,18.50
2023-05-11T17:59:52.703Z,18.50
2023-05-11T18:02:20.811Z,18.40
2023-05-11T18:04:48.889Z,18.30
2023-05-11T18:07:18.126Z,18.30
2023-05-11T18:09:46.342Z,18.30
2023-05-11T18:12:16.932Z,18.20
2023-05-11T18:14:44.955Z,18.20
2023-05-11T18:17:13.025Z,18.20
2023-05-11T18:19:41.192Z,18.20
2023-05-11T18:22:09.566Z,18.10
2023-05-11T18:24:37.647Z,18.00
2023-05-11T18:27:06.224Z,17.90
2023-05-11T18:32:03.232Z,17.50
2023-05-11T18:34:31.382Z,17.30
2023-05-11T18:36:59.529Z,17.10
2023-05-11T18:39:27.837Z,16.90
2023-05-11T18:41:56.058Z,16.80
2023-05-11T18:44:24.221Z,16.70
2023-05-11T18:46:53.467Z,16.60
2023-05-11T18:49:21.948Z,16.60
2023-05-11T18:51:50.523Z,16.40
2023-05-11T18:54:18.579Z,16.30
2023-05-11T18:56:46.931Z,16.10
2023-05-11T18:59:15.104Z,16.10
2023-05-11T19:01:47.882Z,15.90
2023-05-11T19:04:20.258Z,15.90
2023-05-11T19:06:48.603Z,15.80
2023-05-11T19:09:16.709Z,15.80
2023-05-11T19:11:44.939Z,15.70
2023-05-11T19:14:15.159Z,15.60
2023-05-11T19:16:43.448Z,15.60
2023-05-11T19:19:13.241Z,15.50
2023-05-11T19:21:44.221Z,15.40
2023-05-11T19:24:12.884Z,15.40
2023-05-11T19:26:43.888Z,15.30
2023-05-11T19:29:18.198Z,15.20
2023-05-11T19:31:46.637Z,15.20
2023-05-11T19:34:14.748Z,15.10
2023-05-11T19:36:42.919Z,15.00
2023-05-11T19:39:11.019Z,15.00
2023-05-11T19:41:40.140Z,15.00
2023-05-11T19:44:08.247Z,14.90
2023-05-11T19:46:37.391Z,14.90
2023-05-11T19:49:05.485Z,14.80
2023-05-11T19:51:33.553Z,14.80
2023-05-11T19:54:01.611Z,14.70
2023-05-11T19:56:29.667Z,14.70
2023-05-11T19:58:57.681Z,14.60
2023-05-11T20:01:25.997Z,14.60
2023-05-11T20:03:54.315Z,14.50
2023-05-11T20:06:22.456Z,14.50
2023-05-11T20:08:52.094Z,14.50
2023-05-11T20:11:20.345Z,14.50
2023-05-11T20:13:48.448Z,14.40
2023-05-11T20:16:16.651Z,14.40
2023-05-11T20:18:44.988Z,14.40
2023-05-11T20:21:13.409Z,14.30
2023-05-11T20:23:41.979Z,14.30
2023-05-11T20:26:09.961Z,14.30
2023-05-11T20:28:39.926Z,14.20
2023-05-11T20:31:10.113Z,14.20
2023-05-11T20:36:10.076Z,14.10
2023-05-11T20:38:38.059Z,14.10
2023-05-11T20:41:06.080Z,14.10
2023-05-11T20:43:35.096Z,14.00
2023-05-11T20:46:06.197Z,14.00
2023-05-11T20:48:40.562Z,14.00
2023-05-11T20:51:09.446Z,14.00
2023-05-11T20:53:36.699Z,14.00
2023-05-11T20:56:03.991Z,13.90
2023-05-11T20:58:31.798Z,13.90
2023-05-11T21:00:59.078Z,13.90
2023-05-11T21:03:27.723Z,13.90
2023-05-11T21:05:56.249Z,13.80
2023-05-11T21:08:23.428Z,13.80
2023-05-11T21:10:50.612Z,13.80
2023-05-11T21:13:17.694Z,13.80
2023-05-11T21:15:44.845Z,13.80
2023-05-11T21:18:11.935Z,13.80
2023-05-11T21:20:39.241Z,13.80
2023-05-11T21:23:06.312Z,13.80
2023-05-11T21:25:33.337Z,13.80
2023-05-11T21:28:04.864Z,13.80
2023-05-11T21:30:31.961Z,13.80
2023-05-11T21:32:58.984Z,13.70
2023-05-11T21:35:26.357Z,13.70
2023-05-11T21:37:54.134Z,13.70
2023-05-11T21:40:21.412Z,13.70
2023-05-11T21:42:48.729Z,13.70
2023-05-11T21:45:15.947Z,13.70
2023-05-11T21:47:43.040Z,13.70
2023-05-11T21:50:11.257Z,13.70
2023-05-11T21:52:38.485Z,13.70
2023-05-11T21:55:06.190Z,13.60
2023-05-11T21:57:33.295Z,13.70
2023-05-11T22:00:00.378Z,13.60
2023-05-11T22:02:28.111Z,13.60
2023-05-11T22:04:55.354Z,13.70
2023-05-11T22:07:23.380Z,13.60
2023-05-11T22:09:50.824Z,13.60
2023-05-11T22:12:18.115Z,13.60
2023-05-11T22:14:45.758Z,13.60
2023-05-11T22:17:12.809Z,13.70
2023-05-11T22:19:40.158Z,13.70
2023-05-11T22:22:07.237Z,13.70
2023-05-11T22:24:34.318Z,13.70
2023-05-11T22:27:01.963Z,13.60
2023-05-11T22:29:29.009Z,13.60
2023-05-11T22:31:56.116Z,13.60
2023-05-11T22:34:23.226Z,13.60
2023-05-11T22:36:50.276Z,13.60
2023-05-11T22:39:17.280Z,13.60
2023-05-11T22:41:44.576Z,13.60
2023-05-11T22:44:11.662Z,13.50
2023-05-11T22:46:38.664Z,13.50
2023-05-11T22:49:05.768Z,13.50
2023-05-11T22:51:32.839Z,13.50
2023-05-11T22:53:59.880Z,13.50
2023-05-11T22:56:27.142Z,13.50
2023-05-11T22:58:55.964Z,13.50
2023-05-11T23:01:23.083Z,13.40
2023-05-11T23:03:50.248Z,13.40
2023-05-11T23:06:17.446Z,13.40
2023-05-11T23:08:44.668Z,13.40
2023-05-11T23:11:12.052Z,13.40
2023-05-11T23:13:41.510Z,13.30
2023-05-11T23:16:10.087Z,13.40
2023-05-11T23:18:37.870Z,13.30
2023-05-11T23:21:05.511Z,13.30
2023-05-11T23:23:32.821Z,13.30
2023-05-11T23:25:59.835Z,13.30
2023-05-11T23:28:26.844Z,13.30
2023-05-11T23:30:53.861Z,13.30
2023-05-11T23:33:21.070Z,13.20
2023-05-11T23:35:48.589Z,13.20
2023-05-11T23:38:15.697Z,13.20
2023-05-11T23:40:43.151Z,13.20
2023-05-11T23:43:10.148Z,13.20
2023-05-11T23:45:37.614Z,13.20
2023-05-11T23:48:05.413Z,13.30
2023-05-11T23:50:32.525Z,13.20
2023-05-11T23:52:59.594Z,13.30
2023-05-11T23:55:26.626Z,13.30
2023-05-11T23:57:53.747Z,13.30
